createdAt,value
2019-02-04T03:06:03.778Z,988.19
2019-02-04T03:07:03.582Z,988.19
2019-02-04T03:08:03.605Z,988.20
2019-02-04T03:09:03.500Z,988.25
2019-02-04T03:10:03.489Z,988.27
2019-02-04T03:11:03.526Z,988.21
2019-02-04T03:12:03.581Z,988.28
2019-02-04T03:13:03.500Z,988.29
2019-02-04T03:14:03.388Z,988.36
2019-02-04T03:15:03.404Z,988.32
2019-02-04T03:16:03.327Z,988.32
2019-02-04T03:17:03.426Z,988.31
2019-02-04T03:18:03.491Z,988.30
2019-02-04T03:19:03.266Z,988.34
2019-02-04T03:20:03.247Z,988.32
2019-02-04T03:21:03.204Z,988.36
2019-02-04T03:22:03.449Z,988.37
2019-02-04T03:23:03.420Z,988.37
2019-02-04T03:24:03.138Z,988.39
2019-02-04T03:25:03.097Z,988.38
2019-02-04T03:26:03.109Z,988.36
2019-02-04T03:27:03.078Z,988.38
2019-02-04T03:28:03.144Z,988.34
2019-02-04T03:29:02.981Z,988.38
2019-02-04T03:30:03.142Z,988.36
2019-02-04T03:31:02.936Z,988.34
2019-02-04T03:32:02.941Z,988.37
2019-02-04T03:33:03.041Z,988.35
2019-02-04T03:34:02.849Z,988.38
2019-02-04T03:35:02.854Z,988.37
2019-02-04T03:36:02.849Z,988.40
2019-02-04T03:37:02.806Z,988.34
2019-02-04T03:38:02.807Z,988.33
2019-02-04T03:39:02.843Z,988.32
2019-02-04T03:40:02.715Z,988.33
2019-02-04T03:41:02.664Z,988.33
2019-02-04T03:42:02.684Z,988.30
2019-02-04T03:43:02.651Z,988.33
2019-02-04T03:44:02.744Z,988.34
2019-02-04T03:45:02.626Z,988.38
2019-02-04T03:46:02.562Z,988.35
2019-02-04T03:47:02.523Z,988.39
2019-02-04T03:48:09.564Z,988.36
2019-02-04T03:49:02.601Z,988.42
2019-02-04T03:50:02.489Z,988.39
2019-02-04T03:51:02.428Z,988.38
2019-02-04T03:52:02.431Z,988.36
2019-02-04T03:53:02.408Z,988.37
2019-02-04T03:54:02.351Z,988.41
2019-02-04T03:55:02.495Z,988.39
2019-02-04T03:56:02.392Z,988.35
2019-02-04T03:57:02.388Z,988.32
2019-02-04T03:58:02.290Z,988.37
2019-02-04T03:59:02.216Z,988.32
2019-02-04T04:00:02.212Z,988.33
2019-02-04T04:01:02.277Z,988.34
2019-02-04T04:02:02.171Z,988.34
2019-02-04T04:03:02.225Z,988.33
2019-02-04T04:04:02.106Z,988.31
2019-02-04T04:05:02.090Z,988.32
2019-02-04T04:06:02.167Z,988.30
2019-02-04T04:07:02.095Z,988.31
2019-02-04T04:08:02.025Z,988.33
2019-02-04T04:09:02.004Z,988.32
2019-02-04T04:10:01.947Z,988.32
2019-02-04T04:11:01.973Z,988.33
2019-02-04T04:12:01.985Z,988.34
2019-02-04T04:13:01.968Z,988.34
2019-02-04T04:14:02.017Z,988.33
2019-02-04T04:15:01.928Z,988.34
2019-02-04T04:16:01.781Z,988.34
2019-02-04T04:17:01.873Z,988.33
2019-02-04T04:18:01.770Z,988.35
2019-02-04T04:19:01.743Z,988.31
2019-02-04T04:20:01.685Z,988.32
2019-02-04T04:21:01.685Z,988.35
2019-02-04T04:22:01.751Z,988.39
2019-02-04T04:23:01.584Z,988.36
2019-02-04T04:24:01.677Z,988.39
2019-02-04T04:25:01.591Z,988.39
2019-02-04T04:26:01.633Z,988.35
2019-02-04T04:27:01.633Z,988.37
2019-02-04T04:28:01.482Z,988.35
2019-02-04T04:29:01.472Z,988.35
2019-02-04T04:30:01.427Z,988.37
2019-02-04T04:31:01.407Z,988.39
2019-02-04T04:32:01.370Z,988.36
2019-02-04T04:33:01.498Z,988.38
2019-02-04T04:34:01.441Z,988.37
2019-02-04T04:35:01.308Z,988.36
2019-02-04T04:36:01.268Z,988.36
2019-02-04T04:37:01.229Z,988.33
2019-02-04T04:38:01.304Z,988.34
2019-02-04T04:39:01.168Z,988.33
2019-02-04T04:40:01.186Z,988.27
2019-02-04T04:41:01.108Z,988.28
2019-02-04T04:42:01.098Z,988.28
2019-02-04T04:43:01.191Z,988.24
2019-02-04T04:44:01.046Z,988.24
2019-02-04T04:45:01.054Z,988.22
2019-02-04T04:46:00.988Z,988.24
2019-02-04T04:47:00.960Z,988.24
2019-02-04T04:48:00.998Z,988.19
2019-02-04T04:49:01.034Z,988.15
2019-02-04T04:50:00.954Z,988.15
2019-02-04T04:51:00.875Z,988.11
2019-02-04T04:52:00.862Z,988.12
2019-02-04T04:53:00.888Z,988.10
2019-02-04T04:54:00.921Z,988.07
2019-02-04T04:55:00.805Z,988.05
2019-02-04T04:56:00.784Z,988.06
2019-02-04T04:57:00.731Z,988.06
2019-02-04T04:58:00.702Z,988.07
2019-02-04T04:59:00.772Z,988.09
2019-02-04T05:00:00.662Z,988.09
2019-02-04T05:01:00.652Z,988.07
2019-02-04T05:02:00.675Z,988.04
2019-02-04T05:03:00.566Z,988.02
2019-02-04T05:04:00.659Z,987.99
2019-02-04T05:05:00.505Z,987.96
2019-02-04T05:06:00.526Z,987.98
2019-02-04T05:07:00.738Z,987.99
2019-02-04T05:08:00.416Z,987.93
2019-02-04T05:09:00.399Z,987.93
2019-02-04T05:10:00.486Z,987.94
2019-02-04T05:11:00.350Z,987.94
2019-02-04T05:12:00.328Z,987.91
2019-02-04T05:13:00.297Z,987.89
2019-02-04T05:14:00.417Z,987.91
2019-02-04T05:15:00.356Z,987.90
2019-02-04T05:16:00.215Z,987.91
2019-02-04T05:17:00.209Z,987.94
2019-02-04T05:18:00.176Z,987.90
2019-02-04T05:19:00.166Z,987.94
2019-02-04T05:20:00.290Z,987.91
2019-02-04T05:21:00.167Z,987.90
2019-02-04T05:22:00.069Z,987.95
2019-02-04T05:23:00.049Z,987.95
2019-02-04T05:24:00.021Z,987.93
2019-02-04T05:24:59.991Z,987.95
2019-02-04T05:25:59.996Z,987.96
2019-02-04T05:27:00.041Z,987.94
2019-02-04T05:27:59.912Z,987.93
2019-02-04T05:28:59.850Z,987.92
2019-02-04T05:29:59.888Z,987.91
2019-02-04T05:30:59.906Z,987.91
2019-02-04T05:31:59.913Z,987.90
2019-02-04T05:32:59.812Z,987.89
2019-02-04T05:33:59.752Z,987.89
2019-02-04T05:34:59.730Z,987.84
2019-02-04T05:35:59.732Z,987.85
2019-02-04T05:36:59.804Z,987.80
2019-02-04T05:37:59.680Z,987.79
2019-02-04T05:38:59.641Z,987.77
2019-02-04T05:39:59.592Z,987.80
2019-02-04T05:40:59.602Z,987.76
2019-02-04T05:41:59.639Z,987.78
2019-02-04T05:42:59.485Z,987.79
2019-02-04T05:43:59.463Z,987.76
2019-02-04T05:44:59.466Z,987.72
2019-02-04T05:45:59.436Z,987.70
2019-02-04T05:46:59.408Z,987.72
2019-02-04T05:47:59.524Z,987.71
2019-02-04T05:48:59.396Z,987.69
2019-02-04T05:49:59.316Z,987.72
2019-02-04T05:50:59.375Z,987.68
2019-02-04T05:51:59.261Z,987.67
2019-02-04T05:52:59.257Z,987.69
2019-02-04T05:53:59.302Z,987.66
2019-02-04T05:54:59.200Z,987.66
2019-02-04T05:55:59.154Z,987.62
2019-02-04T05:56:59.179Z,987.61
2019-02-04T05:57:59.109Z,987.61
2019-02-04T05:58:59.066Z,987.60
2019-02-04T05:59:59.169Z,987.58
2019-02-04T06:00:59.029Z,987.58
2019-02-04T06:01:58.988Z,987.57
2019-02-04T06:02:58.987Z,987.60
2019-02-04T06:03:58.935Z,987.57
2019-02-04T06:04:59.026Z,987.56
2019-02-04T06:05:58.970Z,987.53
2019-02-04T06:06:58.891Z,987.52
2019-02-04T06:07:58.841Z,987.50
2019-02-04T06:08:58.832Z,987.48
2019-02-04T06:09:58.903Z,987.48
2019-02-04T06:10:58.772Z,987.46
2019-02-04T06:11:58.734Z,987.50
2019-02-04T06:12:58.836Z,987.51
2019-02-04T06:13:58.692Z,987.50
2019-02-04T06:14:58.742Z,987.52
2019-02-04T06:15:58.629Z,987.50
2019-02-04T06:16:58.621Z,987.53
2019-02-04T06:17:58.603Z,987.52
2019-02-04T06:19:00.885Z,987.51
2019-02-04T06:19:58.651Z,987.54
2019-02-04T06:20:58.540Z,987.53
2019-02-04T06:21:58.478Z,987.53
2019-02-04T06:22:58.484Z,987.51
2019-02-04T06:23:58.464Z,987.50
2019-02-04T06:24:58.390Z,987.47
2019-02-04T06:25:58.494Z,987.44
2019-02-04T06:26:58.340Z,987.45
2019-02-04T06:27:58.345Z,987.43
2019-02-04T06:28:58.298Z,987.44
2019-02-04T06:29:58.255Z,987.44
2019-02-04T06:30:58.297Z,987.42
2019-02-04T06:31:58.301Z,987.41
2019-02-04T06:32:58.181Z,987.40
2019-02-04T06:33:58.179Z,987.40
2019-02-04T06:34:58.111Z,987.38
2019-02-04T06:35:58.146Z,987.37
2019-02-04T06:36:58.198Z,987.34
2019-02-04T06:37:58.053Z,987.33
2019-02-04T06:38:58.010Z,987.30
2019-02-04T06:39:58.025Z,987.30
2019-02-04T06:40:57.953Z,987.29
2019-02-04T06:41:58.035Z,987.24
2019-02-04T06:42:57.915Z,987.27
2019-02-04T06:43:57.876Z,987.27
2019-02-04T06:44:57.889Z,987.26
2019-02-04T06:45:57.833Z,987.28
2019-02-04T06:46:57.908Z,987.33
2019-02-04T06:47:57.792Z,987.31
2019-02-04T06:48:57.769Z,987.34
2019-02-04T06:49:57.747Z,987.33
2019-02-04T06:50:57.703Z,987.32
2019-02-04T06:51:57.783Z,987.31
2019-02-04T06:52:57.649Z,987.35
2019-02-04T06:53:57.644Z,987.29
2019-02-04T06:54:57.593Z,987.31
2019-02-04T06:55:57.575Z,987.34
2019-02-04T06:56:57.670Z,987.34
2019-02-04T06:57:57.534Z,987.35
2019-02-04T06:58:57.511Z,987.33
2019-02-04T06:59:57.453Z,987.34
2019-02-04T07:00:57.455Z,987.30
2019-02-04T07:01:57.811Z,987.32
2019-02-04T07:02:57.495Z,987.31
2019-02-04T07:03:57.334Z,987.27
2019-02-04T07:04:57.319Z,987.29
2019-02-04T07:05:57.283Z,987.29
2019-02-04T07:06:57.263Z,987.26
2019-02-04T07:07:57.260Z,987.26
2019-02-04T07:08:57.339Z,987.24
2019-02-04T07:09:57.217Z,987.23
2019-02-04T07:10:57.179Z,987.21
2019-02-04T07:11:57.170Z,987.23
2019-02-04T07:12:57.097Z,987.17
2019-02-04T07:13:57.190Z,987.16
2019-02-04T07:14:57.052Z,987.16
2019-02-04T07:15:57.055Z,987.14
2019-02-04T07:16:57.020Z,987.11
2019-02-04T07:18:01.569Z,987.08
2019-02-04T07:18:57.058Z,987.07
2019-02-04T07:19:56.933Z,987.04
2019-02-04T07:20:56.894Z,987.05
2019-02-04T07:21:56.883Z,987.02
2019-02-04T07:22:56.843Z,987.05
2019-02-04T07:23:56.939Z,987.02
2019-02-04T07:24:56.802Z,987.04
2019-02-04T07:25:56.798Z,987.05
2019-02-04T07:26:56.752Z,987.04
2019-02-04T07:27:56.713Z,987.06
2019-02-04T07:28:56.794Z,987.06
2019-02-04T07:29:56.700Z,987.02
2019-02-04T07:30:56.643Z,987.05
2019-02-04T07:31:56.610Z,987.02
2019-02-04T07:32:56.594Z,987.02
2019-02-04T07:33:56.671Z,987.03
2019-02-04T07:34:56.532Z,986.99
2019-02-04T07:35:56.520Z,986.99
2019-02-04T07:36:56.491Z,987.00
2019-02-04T07:37:56.485Z,986.99
2019-02-04T07:38:56.439Z,986.98
2019-02-04T07:39:56.514Z,986.98
2019-02-04T07:40:56.386Z,986.96
2019-02-04T07:41:56.356Z,986.95
2019-02-04T07:42:56.319Z,986.94
2019-02-04T07:43:56.316Z,986.94
2019-02-04T07:44:56.304Z,986.92
2019-02-04T07:45:56.348Z,986.89
2019-02-04T07:46:56.227Z,986.92
2019-02-04T07:47:56.165Z,986.89
2019-02-04T07:48:56.167Z,986.90
2019-02-04T07:49:56.141Z,986.86
2019-02-04T07:50:56.215Z,986.86
2019-02-04T07:51:56.088Z,986.85
2019-02-04T07:52:56.035Z,986.82
2019-02-04T07:53:56.039Z,986.83
2019-02-04T07:54:56.002Z,986.82
2019-02-04T07:55:56.079Z,986.80
2019-02-04T07:56:55.953Z,986.79
2019-02-04T07:57:57.317Z,986.80
2019-02-04T07:58:55.900Z,986.77
2019-02-04T07:59:55.872Z,986.75
2019-02-04T08:00:55.940Z,986.78
2019-02-04T08:01:55.848Z,986.77
2019-02-04T08:02:55.804Z,986.77
2019-02-04T08:03:55.755Z,986.72
2019-02-04T08:04:55.748Z,986.76
2019-02-04T08:05:55.952Z,986.72
2019-02-04T08:06:55.682Z,986.71
2019-02-04T08:07:55.670Z,986.71
2019-02-04T08:08:55.633Z,986.68
2019-02-04T08:09:55.595Z,986.68
2019-02-04T08:10:55.664Z,986.69
2019-02-04T08:11:55.553Z,986.67
2019-02-04T08:13:01.405Z,986.67
2019-02-04T08:13:55.480Z,986.64
2019-02-04T08:14:55.474Z,986.64
2019-02-04T08:15:55.454Z,986.64
2019-02-04T08:16:55.499Z,986.64
2019-02-04T08:17:55.407Z,986.62
2019-02-04T08:18:55.365Z,986.62
2019-02-04T08:19:55.325Z,986.64
2019-02-04T08:20:55.315Z,986.62
2019-02-04T08:21:55.271Z,986.63
2019-02-04T08:22:55.351Z,986.58
2019-02-04T08:23:55.209Z,986.62
2019-02-04T08:24:55.198Z,986.60
2019-02-04T08:25:55.166Z,986.59
2019-02-04T08:26:55.161Z,986.56
2019-02-04T08:27:55.228Z,986.51
2019-02-04T08:28:55.081Z,986.52
2019-02-04T08:29:55.063Z,986.51
2019-02-04T08:30:55.048Z,986.49
2019-02-04T08:31:55.002Z,986.45
2019-02-04T08:32:55.060Z,986.43
2019-02-04T08:33:54.947Z,986.43
2019-02-04T08:34:54.917Z,986.40
2019-02-04T08:35:54.895Z,986.43
2019-02-04T08:36:54.882Z,986.42
2019-02-04T08:37:54.969Z,986.42
2019-02-04T08:38:54.837Z,986.40
2019-02-04T08:39:54.779Z,986.37
2019-02-04T08:40:54.756Z,986.35
2019-02-04T08:41:54.759Z,986.34
2019-02-04T08:42:54.855Z,986.34
2019-02-04T08:43:54.686Z,986.32
2019-02-04T08:44:54.679Z,986.33
2019-02-04T08:45:54.648Z,986.32
2019-02-04T08:46:54.581Z,986.35
2019-02-04T08:47:54.712Z,986.35
2019-02-04T08:48:54.663Z,986.36
2019-02-04T08:49:58.444Z,986.33
2019-02-04T08:50:54.510Z,986.32
2019-02-04T08:51:54.476Z,986.31
2019-02-04T08:52:54.444Z,986.34
2019-02-04T08:53:54.425Z,986.33
2019-02-04T08:54:54.504Z,986.35
2019-02-04T08:55:54.342Z,986.33
2019-02-04T08:56:54.347Z,986.37
2019-02-04T08:57:54.295Z,986.38
2019-02-04T08:58:54.368Z,986.41
2019-02-04T08:59:54.276Z,986.42
2019-02-04T09:00:54.352Z,986.43
2019-02-04T09:01:54.187Z,986.45
2019-02-04T09:02:54.205Z,986.43
2019-02-04T09:03:54.163Z,986.42
2019-02-04T09:04:54.135Z,986.46
2019-02-04T09:05:54.191Z,986.42
2019-02-04T09:06:54.088Z,986.42
2019-02-04T09:07:54.054Z,986.46
2019-02-04T09:08:54.026Z,986.42
2019-02-04T09:09:53.982Z,986.48
2019-02-04T09:10:54.065Z,986.49
2019-02-04T09:11:53.947Z,986.49
2019-02-04T09:12:53.910Z,986.51
2019-02-04T09:13:53.889Z,986.54
2019-02-04T09:14:53.868Z,986.52
2019-02-04T09:15:53.915Z,986.51
2019-02-04T09:16:53.810Z,986.51
2019-02-04T09:17:53.762Z,986.52
2019-02-04T09:18:53.760Z,986.53
2019-02-04T09:19:53.728Z,986.54
2019-02-04T09:20:53.711Z,986.55
2019-02-04T09:21:53.790Z,986.57
2019-02-04T09:22:53.619Z,986.55
2019-02-04T09:23:53.589Z,986.55
2019-02-04T09:24:53.593Z,986.54
2019-02-04T09:25:53.540Z,986.52
2019-02-04T09:26:53.710Z,986.52
2019-02-04T09:27:53.599Z,986.52
2019-02-04T09:28:53.492Z,986.51
2019-02-04T09:29:53.559Z,986.50
2019-02-04T09:30:53.442Z,986.55
2019-02-04T09:31:53.388Z,986.55
2019-02-04T09:32:53.346Z,986.55
2019-02-04T09:33:53.413Z,986.57
2019-02-04T09:34:53.304Z,986.58
2019-02-04T09:35:53.292Z,986.60
2019-02-04T09:36:53.302Z,986.62
2019-02-04T09:37:53.227Z,986.61
2019-02-04T09:38:53.289Z,986.61
2019-02-04T09:39:53.170Z,986.64
2019-02-04T09:40:53.140Z,986.56
2019-02-04T09:41:53.139Z,986.61
2019-02-04T09:42:53.082Z,986.58
2019-02-04T09:43:53.177Z,986.57
2019-02-04T09:44:53.076Z,986.59
2019-02-04T09:45:53.130Z,986.59
2019-02-04T09:46:52.999Z,986.59
2019-02-04T09:47:52.969Z,986.60
2019-02-04T09:48:53.017Z,986.59
2019-02-04T09:49:52.894Z,986.63
2019-02-04T09:50:52.873Z,986.62
2019-02-04T09:51:52.879Z,986.67
2019-02-04T09:52:52.846Z,986.65
2019-02-04T09:53:52.893Z,986.65
2019-02-04T09:54:52.768Z,986.68
2019-02-04T09:55:52.754Z,986.67
2019-02-04T09:56:52.690Z,986.67
2019-02-04T09:57:52.681Z,986.66
2019-02-04T09:58:52.720Z,986.68
2019-02-04T09:59:52.780Z,986.70
2019-02-04T10:00:52.622Z,986.70
2019-02-04T10:01:52.582Z,986.69
2019-02-04T10:04:56.883Z,986.75
2019-02-04T10:05:56.769Z,986.73
2019-02-04T10:06:56.750Z,986.76
2019-02-04T10:07:56.725Z,986.72
2019-02-04T10:08:56.733Z,986.72
2019-02-04T10:09:58.950Z,986.73
2019-02-04T10:10:56.724Z,986.72
2019-02-04T10:11:56.577Z,986.73
2019-02-04T10:12:56.552Z,986.75
2019-02-04T10:13:56.538Z,986.76
2019-02-04T10:14:56.535Z,986.75
2019-02-04T10:15:56.596Z,986.81
2019-02-04T10:16:56.514Z,986.85
2019-02-04T10:17:56.454Z,986.83
2019-02-04T10:18:56.405Z,986.83
2019-02-04T10:19:56.408Z,986.88
2019-02-04T10:20:56.381Z,986.89
2019-02-04T10:21:56.429Z,986.93
2019-02-04T10:22:56.353Z,986.91
2019-02-04T10:23:56.304Z,986.92
2019-02-04T10:24:56.216Z,986.97
2019-02-04T10:25:56.226Z,986.98
2019-02-04T10:26:56.318Z,987.00
2019-02-04T10:27:56.216Z,987.02
2019-02-04T10:28:56.124Z,987.02
2019-02-04T10:29:56.149Z,987.04
2019-02-04T10:30:56.124Z,987.00
2019-02-04T10:31:56.166Z,987.04
2019-02-04T10:32:56.034Z,987.09
2019-02-04T10:33:56.006Z,987.09
2019-02-04T10:34:55.972Z,987.11
2019-02-04T10:35:55.958Z,987.15
2019-02-04T10:36:56.018Z,987.13
2019-02-04T10:37:55.899Z,987.16
2019-02-04T10:38:55.858Z,987.19
2019-02-04T10:39:55.842Z,987.22
2019-02-04T10:40:55.805Z,987.20
2019-02-04T10:41:55.826Z,987.23
2019-02-04T10:42:55.872Z,987.24
2019-02-04T10:43:55.709Z,987.28
2019-02-04T10:44:55.708Z,987.30
2019-02-04T10:45:55.789Z,987.32
2019-02-04T10:46:55.704Z,987.28
2019-02-04T10:47:55.806Z,987.36
2019-02-04T10:48:55.585Z,987.33
2019-02-04T10:49:55.570Z,987.31
2019-02-04T10:50:55.616Z,987.28
2019-02-04T10:51:55.551Z,987.30
2019-02-04T10:52:55.581Z,987.30
2019-02-04T10:53:55.483Z,987.28
2019-02-04T10:54:55.446Z,987.30
2019-02-04T10:55:55.452Z,987.33
2019-02-04T10:56:55.588Z,987.33
2019-02-04T10:57:55.331Z,987.33
2019-02-04T10:58:55.512Z,987.33
2019-02-04T10:59:55.311Z,987.34
2019-02-04T11:00:55.278Z,987.33
2019-02-04T11:01:55.227Z,987.36
2019-02-04T11:02:55.212Z,987.37
2019-02-04T11:03:55.293Z,987.37
2019-02-04T11:04:55.168Z,987.39
2019-02-04T11:05:55.142Z,987.45
2019-02-04T11:06:55.140Z,987.45
2019-02-04T11:07:55.095Z,987.45
2019-02-04T11:08:55.116Z,987.50
2019-02-04T11:09:55.055Z,987.46
2019-02-04T11:10:55.041Z,987.49
2019-02-04T11:11:54.974Z,987.51
2019-02-04T11:12:54.991Z,987.51
2019-02-04T11:13:54.974Z,987.54
2019-02-04T11:14:55.048Z,987.58
2019-02-04T11:15:54.861Z,987.56
2019-02-04T11:16:54.821Z,987.55
2019-02-04T11:17:54.779Z,987.55
2019-02-04T11:18:54.815Z,987.53
2019-02-04T11:19:54.842Z,987.57
2019-02-04T11:20:58.176Z,987.56
2019-02-04T11:21:54.690Z,987.53
2019-02-04T11:22:54.713Z,987.52
2019-02-04T11:23:54.637Z,987.52
2019-02-04T11:24:54.764Z,987.56
2019-02-04T11:25:54.646Z,987.58
2019-02-04T11:26:54.559Z,987.56
2019-02-04T11:27:54.519Z,987.59
2019-02-04T11:28:54.553Z,987.59
2019-02-04T11:29:54.487Z,987.57
2019-02-04T11:30:54.614Z,987.62
2019-02-04T11:31:54.447Z,987.58
2019-02-04T11:32:54.397Z,987.61
2019-02-04T11:33:54.412Z,987.64
2019-02-04T11:34:54.341Z,987.67
2019-02-04T11:35:54.368Z,987.67
2019-02-04T11:36:54.414Z,987.70
2019-02-04T11:37:54.268Z,987.71
2019-02-04T11:38:54.291Z,987.67
2019-02-04T11:39:54.238Z,987.68
2019-02-04T11:40:54.199Z,987.70
2019-02-04T11:41:54.273Z,987.71
2019-02-04T11:42:54.159Z,987.73
2019-02-04T11:43:54.115Z,987.72
2019-02-04T11:44:54.047Z,987.76
2019-02-04T11:45:55.082Z,987.75
2019-02-04T11:46:54.096Z,987.76
2019-02-04T11:47:54.121Z,987.78
2019-02-04T11:48:53.951Z,987.79
2019-02-04T11:49:53.940Z,987.80
2019-02-04T11:50:53.948Z,987.83
2019-02-04T11:51:53.868Z,987.85
2019-02-04T11:52:53.972Z,987.86
2019-02-04T11:53:53.826Z,987.81
2019-02-04T11:54:53.829Z,987.85
2019-02-04T11:55:53.795Z,987.87
2019-02-04T11:56:53.854Z,987.86
2019-02-04T11:57:53.858Z,987.94
2019-02-04T11:58:53.709Z,987.97
2019-02-04T11:59:53.676Z,987.94
2019-02-04T12:00:53.924Z,987.95
2019-02-04T12:01:54.043Z,987.96
2019-02-04T12:02:53.759Z,987.96
2019-02-04T12:03:53.564Z,987.99
2019-02-04T12:04:53.528Z,987.99
2019-02-04T12:05:53.511Z,987.96
2019-02-04T12:06:53.484Z,988.00
2019-02-04T12:07:53.436Z,988.00
2019-02-04T12:08:53.564Z,988.00
2019-02-04T12:09:53.442Z,988.05
2019-02-04T12:10:53.383Z,988.03
2019-02-04T12:11:55.655Z,988.01
2019-02-04T12:12:53.306Z,988.04
2019-02-04T12:13:53.282Z,988.03
2019-02-04T12:14:53.345Z,988.09
2019-02-04T12:15:53.249Z,988.05
2019-02-04T12:16:53.220Z,988.11
2019-02-04T12:17:53.165Z,988.11
2019-02-04T12:18:53.149Z,988.13
2019-02-04T12:19:53.188Z,988.13
2019-02-04T12:20:53.179Z,988.17
2019-02-04T12:21:53.088Z,988.20
2019-02-04T12:22:53.073Z,988.18
2019-02-04T12:23:53.026Z,988.24
2019-02-04T12:24:52.977Z,988.27
2019-02-04T12:25:53.067Z,988.25
2019-02-04T12:26:53.073Z,988.26
2019-02-04T12:27:52.931Z,988.27
2019-02-04T12:28:52.878Z,988.33
2019-02-04T12:29:52.863Z,988.31
2019-02-04T12:30:52.819Z,988.35
2019-02-04T12:31:52.929Z,988.35
2019-02-04T12:32:52.781Z,988.37
2019-02-04T12:33:52.792Z,988.38
2019-02-04T12:34:52.709Z,988.38
2019-02-04T12:35:52.696Z,988.41
2019-02-04T12:36:52.798Z,988.35
2019-02-04T12:37:52.643Z,988.36
2019-02-04T12:38:52.622Z,988.39
2019-02-04T12:39:52.584Z,988.39
2019-02-04T12:40:52.551Z,988.40
2019-02-04T12:41:52.646Z,988.41
2019-02-04T12:42:52.527Z,988.42
2019-02-04T12:43:52.486Z,988.40
2019-02-04T12:44:52.457Z,988.44
2019-02-04T12:45:52.476Z,988.44
2019-02-04T12:46:52.383Z,988.48
2019-02-04T12:47:52.475Z,988.48
2019-02-04T12:48:52.432Z,988.51
2019-02-04T12:49:52.395Z,988.52
2019-02-04T12:50:52.306Z,988.52
2019-02-04T12:51:52.285Z,988.54
2019-02-04T12:52:52.273Z,988.57
2019-02-04T12:53:52.312Z,988.58
2019-02-04T12:54:52.449Z,988.59
2019-02-04T12:55:52.150Z,988.55
2019-02-04T12:56:52.132Z,988.61
2019-02-04T12:57:52.118Z,988.60
2019-02-04T12:58:55.657Z,988.60
2019-02-04T12:59:52.169Z,988.65
2019-02-04T13:00:52.058Z,988.63
2019-02-04T13:01:52.003Z,988.63
2019-02-04T13:02:51.969Z,988.64
2019-02-04T13:03:51.953Z,988.68
2019-02-04T13:04:52.079Z,988.63
2019-02-04T13:05:51.919Z,988.65
2019-02-04T13:06:51.910Z,988.68
2019-02-04T13:07:51.901Z,988.70
2019-02-04T13:08:51.874Z,988.73
2019-02-04T13:09:51.894Z,988.77
2019-02-04T13:10:51.760Z,988.77
2019-02-04T13:11:51.752Z,988.78
2019-02-04T13:12:51.709Z,988.78
2019-02-04T13:13:54.324Z,988.78
2019-02-04T13:14:54.324Z,988.79
2019-02-04T13:15:53.359Z,988.79
2019-02-04T13:16:53.307Z,988.81
2019-02-04T13:17:53.424Z,988.77
2019-02-04T13:18:51.583Z,988.81
2019-02-04T13:19:51.544Z,988.82
2019-02-04T13:20:51.614Z,988.79
2019-02-04T13:21:51.651Z,988.84
2019-02-04T13:22:51.591Z,988.86
2019-02-04T13:23:51.440Z,988.87
2019-02-04T13:24:51.424Z,988.88
2019-02-04T13:25:51.460Z,988.88
2019-02-04T13:26:51.537Z,988.92
2019-02-04T13:27:51.466Z,988.93
2019-02-04T13:28:51.329Z,988.92
2019-02-04T13:29:51.313Z,988.89
2019-02-04T13:30:51.260Z,988.91
2019-02-04T13:31:51.274Z,988.97
2019-02-04T13:32:51.347Z,988.96
2019-02-04T13:33:51.287Z,988.94
2019-02-04T13:34:51.207Z,988.94
2019-02-04T13:35:51.208Z,988.96
2019-02-04T13:36:51.136Z,988.94
2019-02-04T13:37:51.235Z,988.96
2019-02-04T13:38:51.047Z,988.99
2019-02-04T13:39:51.050Z,988.99
2019-02-04T13:40:50.988Z,988.99
2019-02-04T13:41:51.000Z,989.01
2019-02-04T13:42:51.109Z,989.05
2019-02-04T13:43:50.936Z,989.05
2019-02-04T13:44:50.921Z,989.08
2019-02-04T13:45:51.234Z,989.11
2019-02-04T13:46:50.939Z,989.10
2019-02-04T13:47:50.942Z,989.13
2019-02-04T13:48:50.833Z,989.11
2019-02-04T13:49:50.933Z,989.14
2019-02-04T13:50:50.772Z,989.05
2019-02-04T13:51:57.560Z,989.08
2019-02-04T13:52:50.786Z,989.13
2019-02-04T13:53:50.883Z,989.09
2019-02-04T13:54:50.684Z,989.11
2019-02-04T13:55:50.770Z,989.14
2019-02-04T13:56:50.753Z,989.16
2019-02-04T13:57:51.009Z,989.16
2019-02-04T13:58:50.607Z,989.21
2019-02-04T13:59:50.704Z,989.20
2019-02-04T14:00:50.557Z,989.19
2019-02-04T14:01:50.527Z,989.16
2019-02-04T14:02:58.906Z,989.18
2019-02-04T14:03:50.538Z,989.24
2019-02-04T14:04:50.405Z,989.30
2019-02-04T14:05:50.498Z,989.30
2019-02-04T14:06:50.383Z,989.35
2019-02-04T14:07:50.560Z,989.28
2019-02-04T14:08:50.724Z,989.28
2019-02-04T14:09:50.413Z,989.28
2019-02-04T14:10:50.315Z,989.30
2019-02-04T14:11:50.282Z,989.28
2019-02-04T14:12:50.410Z,989.30
2019-02-04T14:13:50.336Z,989.28
2019-02-04T14:14:50.330Z,989.29
2019-02-04T14:15:50.206Z,989.28
2019-02-04T14:16:50.124Z,989.32
2019-02-04T14:17:50.104Z,989.29
2019-02-04T14:18:50.256Z,989.30
2019-02-04T14:19:50.240Z,989.28
2019-02-04T14:20:50.104Z,989.33
2019-02-04T14:21:50.113Z,989.37
2019-02-04T14:22:49.967Z,989.39
2019-02-04T14:23:49.948Z,989.41
2019-02-04T14:24:50.046Z,989.43
2019-02-04T14:25:50.004Z,989.46
2019-02-04T14:26:49.957Z,989.44
2019-02-04T14:27:49.985Z,989.48
2019-02-04T14:28:50.120Z,989.47
2019-02-04T14:29:50.136Z,989.50
2019-02-04T14:30:49.895Z,989.50
2019-02-04T14:31:49.930Z,989.50
2019-02-04T14:32:49.849Z,989.49
2019-02-04T14:33:49.766Z,989.52
2019-02-04T14:34:51.426Z,989.56
2019-02-04T14:35:49.731Z,989.58
2019-02-04T14:36:49.686Z,989.60
2019-02-04T14:37:49.645Z,989.60
2019-02-04T14:38:49.671Z,989.61
2019-02-04T14:39:49.852Z,989.62
2019-02-04T14:40:49.593Z,989.59
2019-02-04T14:41:49.501Z,989.59
2019-02-04T14:42:49.832Z,989.61
2019-02-04T14:43:49.585Z,989.62
2019-02-04T14:44:49.659Z,989.60
2019-02-04T14:45:49.568Z,989.61
2019-02-04T14:46:49.435Z,989.57
2019-02-04T14:47:49.512Z,989.58
2019-02-04T14:48:49.441Z,989.58
2019-02-04T14:49:49.467Z,989.61
2019-02-04T14:50:49.341Z,989.59
2019-02-04T14:51:49.600Z,989.61
2019-02-04T14:52:49.344Z,989.65
2019-02-04T14:53:49.329Z,989.67
2019-02-04T14:54:49.278Z,989.63
2019-02-04T14:55:49.450Z,989.63
2019-02-04T14:56:49.344Z,989.66
2019-02-04T14:57:49.173Z,989.66
2019-02-04T14:58:49.173Z,989.68
2019-02-04T14:59:49.191Z,989.67
2019-02-04T15:00:49.137Z,989.69
2019-02-04T15:01:49.237Z,989.65
2019-02-04T15:02:49.059Z,989.66
2019-02-04T15:03:49.042Z,989.67
2019-02-04T15:04:49.004Z,989.65
2019-02-04T15:05:48.986Z,989.67
2019-02-04T15:06:49.081Z,989.65
2019-02-04T15:07:48.942Z,989.66
2019-02-04T15:08:48.932Z,989.66
2019-02-04T15:09:48.880Z,989.67
2019-02-04T15:10:48.872Z,989.63
2019-02-04T15:11:48.960Z,989.58
2019-02-04T15:12:48.829Z,989.66
2019-02-04T15:13:48.798Z,989.61
2019-02-04T15:14:48.923Z,989.61
2019-02-04T15:15:48.776Z,989.61
2019-02-04T15:16:48.794Z,989.61
2019-02-04T15:17:48.724Z,989.59
2019-02-04T15:18:48.672Z,989.56
2019-02-04T15:19:48.691Z,989.56
2019-02-04T15:20:48.802Z,989.55
2019-02-04T15:21:48.746Z,989.55
2019-02-04T15:22:48.602Z,989.53
2019-02-04T15:23:48.596Z,989.52
2019-02-04T15:24:48.575Z,989.52
2019-02-04T15:25:48.520Z,989.47
2019-02-04T15:26:48.646Z,989.47
2019-02-04T15:27:48.616Z,989.48
2019-02-04T15:28:48.503Z,989.50
2019-02-04T15:29:48.464Z,989.53
2019-02-04T15:30:48.441Z,989.51
2019-02-04T15:31:48.907Z,989.51
2019-02-04T15:32:48.398Z,989.51
2019-02-04T15:33:48.442Z,989.50
2019-02-04T15:34:48.421Z,989.50
2019-02-04T15:35:48.298Z,989.48